Latest Weather Observations for Port Lincoln Airport

IDS60801

Issued at 6:01 pm CDT Friday 20 January 2017 (issued every 30 minutes, with the page automatically refreshed every 10 minutes)

About weather observations | Map of weather stations | Latest weather observations for SA | Other Formats
Station Details ID: 018192 Name: PORT LINCOLN AWS Lat: -34.60 Lon: 135.88 Height: 8.5 m
Data from the previous 72 hours. | See also: Recent months at Port Lincoln Airport
Date/Time
CDT
Temp
°C
App
Temp
°C
Dew
Point
°C
Rel
Hum
%
Delta-T
°C
Wind Press
QNH
hPa
Press
MSL
hPa
Rain since
9am
mm
Dir  Spd
km/h
Gust
km/h
Spd
kts
Gust
kts
20/06:00pm 21.3 18.3 12.7 58 4.9 S 20 24 11 13 1010.3 - -
20/05:30pm 21.3 17.6 12.7 58 4.9 S 24 32 13 17 1010.3 1010.3 0.0
20/05:00pm 21.8 17.9 12.1 54 5.5 S 24 30 13 16 1010.4 1010.4 0.0
20/04:30pm 22.0 17.8 11.1 50 6.0 SSE 24 30 13 16 1010.2 1010.2 0.0
20/04:00pm 22.4 18.9 12.1 52 5.8 S 22 30 12 16 1010.0 1010.0 0.0
20/03:30pm 21.9 18.2 11.6 52 5.8 SSE 22 30 12 16 1010.0 1010.0 0.0
20/03:00pm 21.8 18.1 12.6 56 5.2 SSE 24 33 13 18 1009.9 1009.9 0.0
20/02:30pm 21.0 17.9 13.4 62 4.4 SSE 22 30 12 16 1009.9 1009.9 0.0
20/02:00pm 21.0 17.4 12.9 60 4.6 SSE 24 32 13 17 1009.9 1009.9 0.0
20/01:30pm 21.8 18.8 13.7 60 4.7 SSE 22 32 12 17 1010.1 1010.1 0.0
20/01:00pm 20.3 16.5 12.5 61 4.4 S 24 28 13 15 1010.1 1010.1 0.0
20/12:30pm 19.7 17.0 13.4 67 3.6 S 20 28 11 15 1009.9 1009.9 0.0
20/12:00pm 20.6 18.1 14.0 66 3.8 S 20 28 11 15 1009.6 1009.6 0.0
20/11:30am 20.1 16.2 14.5 70 3.3 S 28 35 15 19 1009.2 1009.2 0.0
20/11:00am 18.8 14.8 14.1 74 2.7 S 28 35 15 19 1009.0 1009.0 0.0
20/10:30am 17.7 13.1 13.6 77 2.3 SSE 30 37 16 20 1008.7 1008.7 0.0
20/10:00am 18.2 13.1 13.7 75 2.6 S 33 41 18 22 1008.5 1008.5 0.0
20/09:30am 18.3 13.7 14.6 79 2.1 S 32 39 17 21 1008.2 1008.2 0.0
20/09:00am 17.1 12.3 14.7 86 1.4 S 33 43 18 23 1007.8 1007.8 7.4
20/08:30am 17.2 13.9 14.1 82 1.8 SSW 24 32 13 17 1007.5 1007.5 7.4
20/08:28am 17.1 13.4 14.0 82 1.8 SSW 26 37 14 20 1007.4 1007.4 7.4
20/08:05am 16.7 12.4 14.5 87 1.3 SSW 30 41 16 22 1007.0 1007.0 7.4
20/08:00am 16.8 12.3 14.8 88 1.2 SSW 32 41 17 22 1006.9 1006.9 7.4
20/07:30am 16.9 13.6 14.9 88 1.2 SSW 26 32 14 17 1006.0 1006.0 7.4
20/07:00am 16.6 13.7 15.0 90 0.9 SSW 24 32 13 17 1005.5 1005.5 7.4
20/06:34am 16.4 13.8 14.9 91 0.9 SSW 22 30 12 16 1005.1 1005.1 7.4
20/06:30am 16.5 13.6 15.2 92 0.8 SSW 24 35 13 19 1005.0 1005.0 7.4
20/06:00am 16.4 12.4 15.3 93 0.6 SSW 30 41 16 22 1004.4 1004.4 7.4
20/05:56am 16.3 12.3 15.2 93 0.6 SSW 30 41 16 22 1004.3 1004.3 7.4
20/05:30am 16.7 13.5 15.4 92 0.8 SSW 26 39 14 21 1003.8 1003.8 7.4
20/05:28am 16.7 13.2 15.4 92 0.8 SSW 28 39 15 21 1003.8 1003.8 7.4
20/05:00am 16.6 12.7 15.6 94 0.6 SSW 30 37 16 20 1003.3 1003.3 7.4
20/04:31am 16.9 13.6 16.1 95 0.5 SSW 28 35 15 19 1003.2 1003.2 7.4
20/04:30am 16.9 13.6 16.1 95 0.5 SSW 28 35 15 19 1003.2 1003.2 7.4
20/04:19am 17.1 14.2 16.1 94 0.6 SSW 26 33 14 18 1003.0 1003.0 7.4
20/04:00am 17.4 14.9 16.1 92 0.8 SSW 24 32 13 17 1002.8 1002.8 7.4
20/03:54am 17.5 15.1 16.4 93 0.7 SW 24 32 13 17 1002.8 1002.8 7.4
20/03:30am 17.3 14.4 16.0 92 0.8 SW 26 39 14 21 1002.6 1002.6 7.4
20/03:00am 17.1 15.7 16.5 96 0.4 SSW 19 33 10 18 1002.3 1002.3 7.4
20/02:39am 17.1 16.7 16.3 95 0.5 WSW 13 19 7 10 1001.7 1001.7 7.4
20/02:30am 17.3 17.4 16.5 95 0.5 WSW 11 15 6 8 1001.7 1001.7 7.4
20/02:28am 17.3 17.4 16.5 95 0.5 WSW 11 13 6 7 1001.7 1001.7 7.4
20/02:00am 17.7 17.6 16.9 95 0.5 W 13 15 7 8 1001.7 1001.7 7.4
20/01:30am 17.8 18.6 17.2 96 0.4 WSW 9 13 5 7 1001.7 1001.7 7.4
20/01:00am 17.6 18.7 17.0 96 0.4 NW 7 9 4 5 1001.2 1001.2 7.4
20/12:30am 17.4 18.6 16.8 96 0.4 N 6 7 3 4 1000.8 1000.8 7.4
20/12:00am 17.4 18.6 16.8 96 0.4 N 6 7 3 4 1001.1 1001.1 7.4
 
Date/Time
CDT
Temp
°C
App
Temp
°C
Dew
Point
°C
Rel
Hum
%
Delta-T
°C
Wind Press
QNH
hPa
Press
MSL
hPa
Rain since
9am
mm
Dir  Spd
km/h
Gust
km/h
Spd
kts
Gust
kts
19/11:55pm 17.3 18.4 16.7 96 0.4 N 6 9 3 5 1001.0 1001.0 7.4
19/11:40pm 17.3 19.6 16.7 96 0.4 CALM 0 0 0 0 1001.1 1001.1 7.4
19/11:30pm 17.2 19.1 16.6 96 0.4 SW 2 7 1 4 1001.3 1001.3 7.4
19/11:22pm 17.2 18.1 16.6 96 0.4 WSW 7 11 4 6 1001.6 1001.6 7.0
19/11:17pm 17.2 17.3 16.6 96 0.4 WSW 11 17 6 9 1001.9 1001.9 6.6
19/11:00pm 17.3 15.0 16.7 96 0.4 S 24 32 13 17 1001.5 1001.5 5.8
19/10:54pm 17.5 14.5 16.9 96 0.4 S 28 33 15 18 1001.7 1001.7 5.2
19/10:42pm 17.4 13.3 16.4 94 0.6 S 33 44 18 24 1001.6 1001.6 2.6
19/10:30pm 17.5 11.2 16.2 92 0.8 S 44 54 24 29 1001.5 1001.5 1.8
19/10:00pm 17.8 11.9 16.8 94 0.6 S 43 56 23 30 1000.7 1000.7 1.6
19/09:58pm 17.9 11.9 16.9 94 0.6 S 44 63 24 34 1001.0 1001.0 1.6
19/09:57pm 18.0 12.0 17.0 94 0.6 S 44 63 24 34 1001.2 1001.2 1.6
19/09:54pm 18.0 11.3 17.0 94 0.6 S 48 63 26 34 1001.8 1001.8 1.6
19/09:36pm 18.5 13.2 17.2 92 0.8 SSW 41 52 22 28 1001.7 1001.7 1.6
19/09:30pm 18.5 14.3 17.2 92 0.8 SSW 35 46 19 25 1001.3 1001.3 1.4
19/09:11pm 18.7 13.8 17.4 92 0.8 SSW 39 57 21 31 1000.7 1000.7 1.4
19/09:00pm 18.9 13.0 17.2 90 1.0 SSW 44 59 24 32 1000.6 1000.6 1.4
19/08:30pm 19.6 16.0 17.7 89 1.2 SSW 33 43 18 23 1000.7 1000.7 1.4
19/08:16pm 20.9 18.6 17.7 82 2.0 SSW 26 48 14 26 1000.6 1000.6 1.4
19/08:00pm 22.6 22.4 19.8 84 1.8 S 20 28 11 15 1000.4 1000.4 1.4
19/07:46pm 22.9 24.5 19.1 79 2.4 NNW 9 13 5 7 1000.3 1000.3 1.4
19/07:30pm 22.0 22.8 18.2 79 2.4 NW 11 13 6 7 1000.1 1000.1 1.2
19/07:29pm 22.0 22.8 18.2 79 2.4 NW 11 13 6 7 1000.1 1000.1 1.2
19/07:00pm 24.3 25.6 17.1 64 4.5 NNE 6 9 3 5 998.7 998.7 0.0
19/06:30pm 25.4 25.2 13.6 48 7.0 NE 7 9 4 5 997.7 997.7 0.0
19/06:00pm 25.8 23.7 12.3 43 7.8 ENE 15 20 8 11 998.1 998.1 0.0
19/05:30pm 27.4 25.9 15.4 48 7.4 SSE 17 24 9 13 997.7 997.7 0.0
19/05:00pm 27.6 26.0 13.9 43 8.2 ESE 15 20 8 11 998.1 998.1 0.0
19/04:30pm 27.2 26.1 15.2 47 7.3 ESE 15 20 8 11 998.9 998.9 0.0
19/04:00pm 27.0 25.4 15.1 48 7.2 E 17 20 9 11 999.6 999.6 0.0
19/03:30pm 26.2 24.7 15.3 51 6.6 E 17 22 9 12 1000.2 1000.2 0.0
19/03:00pm 26.8 25.2 16.1 52 6.6 E 19 26 10 14 1001.5 1001.5 0.0
19/02:30pm 25.6 24.0 16.5 57 5.6 E 20 30 11 16 1002.4 1002.4 0.0
19/02:00pm 25.0 23.0 16.4 59 5.3 E 22 28 12 15 1003.2 1003.2 0.0
19/01:30pm 25.5 24.1 17.9 63 4.8 E 22 26 12 14 1004.0 1004.0 0.0
19/01:00pm 24.8 23.8 17.5 64 4.6 E 19 24 10 13 1004.9 1004.9 0.0
19/12:30pm 25.1 23.8 16.8 60 5.1 E 19 24 10 13 1005.5 1005.5 0.0
19/12:00pm 23.9 22.3 16.4 63 4.6 E 20 26 11 14 1005.9 1005.9 0.0
19/11:30am 23.8 22.1 17.3 67 4.0 E 22 26 12 14 1006.3 1006.3 0.0
19/11:00am 23.5 22.6 17.7 70 3.6 E 19 26 10 14 1006.7 1006.7 0.0
19/10:30am 23.5 22.8 18.2 72 3.3 E 19 24 10 13 1007.3 1007.3 0.0
19/10:00am 22.2 21.0 17.1 73 3.1 ENE 19 26 10 14 1007.5 1007.5 0.0
19/09:30am 22.0 21.4 18.8 82 2.0 ENE 20 24 11 13 1007.8 1007.8 0.0
19/09:00am 20.2 19.1 17.2 83 1.8 E 19 24 10 13 1008.1 1008.1 0.2
19/08:50am 20.2 19.6 17.6 85 1.6 E 17 20 9 11 1008.5 1008.5 0.2
19/08:30am 19.6 19.3 17.4 87 1.3 E 15 22 8 12 1008.9 1008.9 0.2
19/08:12am 19.1 18.3 17.1 88 1.2 E 17 20 9 11 1008.7 1008.7 0.2
19/08:00am 19.1 18.0 17.2 89 1.2 E 19 26 10 14 1008.7 1008.7 0.2
19/07:47am 18.8 17.0 16.9 89 1.1 E 22 30 12 16 1008.4 1008.4 0.2
19/07:30am 18.8 17.4 16.9 89 1.1 E 20 26 11 14 1008.6 1008.6 0.2
19/07:28am 18.8 17.4 16.9 89 1.1 E 20 26 11 14 1008.6 1008.6 0.2
19/07:00am 18.5 16.5 16.5 88 1.2 E 22 32 12 17 1008.3 1008.3 0.0
19/06:30am 18.6 17.2 16.6 88 1.2 E 19 24 10 13 1009.2 1009.2 0.0
19/06:00am 18.5 16.9 15.9 85 1.5 E 19 24 10 13 1009.1 1009.1 0.0
19/05:30am 18.5 16.5 15.6 83 1.7 ESE 20 28 11 15 1009.6 1009.6 0.0
19/05:21am 18.5 16.6 15.7 84 1.7 ESE 20 28 11 15 1009.2 1009.2 0.0
19/05:00am 18.3 15.9 15.4 83 1.7 ESE 22 28 12 15 1009.7 1009.7 0.0
19/04:46am 18.4 16.3 15.3 82 1.8 ESE 20 24 11 13 1010.0 1010.0 0.0
19/04:39am 18.4 16.3 15.3 82 1.8 ESE 20 26 11 14 1009.9 1009.9 0.0
19/04:30am 18.3 15.8 15.2 82 1.8 ESE 22 26 12 14 1010.0 1010.0 0.0
19/04:00am 18.2 15.3 15.1 82 1.8 ESE 24 30 13 16 1010.2 1010.2 0.0
19/03:30am 18.0 15.7 14.7 81 1.9 ESE 20 26 11 14 1010.6 1010.6 0.0
19/03:12am 18.0 15.3 14.7 81 1.9 ESE 22 28 12 15 1010.7 1010.7 0.0
19/03:00am 17.9 15.6 14.6 81 1.9 ESE 20 28 11 15 1011.0 1011.0 0.0
19/02:30am 17.9 15.1 14.4 80 2.0 ESE 22 26 12 14 1011.4 1011.4 0.0
19/02:00am 17.8 14.9 14.1 79 2.1 ESE 22 28 12 15 1011.8 1011.8 0.0
19/01:30am 17.9 15.0 14.0 78 2.2 ESE 22 28 12 15 1012.2 1012.2 0.0
19/01:00am 17.8 14.2 14.1 79 2.1 ESE 26 33 14 18 1012.4 1012.4 0.0
19/12:30am 17.8 14.5 13.9 78 2.2 ESE 24 33 13 18 1012.6 1012.6 0.0
19/12:00am 17.8 14.0 13.7 77 2.3 ESE 26 35 14 19 1013.0 1013.0 0.0
 
Date/Time
CDT
Temp
°C
App
Temp
°C
Dew
Point
°C
Rel
Hum
%
Delta-T
°C
Wind Press
QNH
hPa
Press
MSL
hPa
Rain since
9am
mm
Dir  Spd
km/h
Gust
km/h
Spd
kts
Gust
kts
18/11:30pm 17.9 14.0 13.2 74 2.6 ESE 26 37 14 20 1013.5 1013.5 0.0
18/11:00pm 18.1 14.1 13.0 72 2.9 ESE 26 35 14 19 1013.8 1013.8 0.0
18/10:30pm 18.1 14.1 13.0 72 2.9 ESE 26 32 14 17 1013.9 1013.9 0.0
18/10:00pm 18.3 14.0 13.2 72 2.9 ESE 28 39 15 21 1014.0 1014.0 0.0
18/09:30pm 18.4 14.1 13.3 72 2.9 ESE 28 35 15 19 1013.9 1013.9 0.0
18/09:00pm 18.6 13.6 13.5 72 2.9 ESE 32 39 17 21 1013.9 1013.9 0.0
18/08:30pm 18.9 14.4 13.7 72 3.0 ESE 30 41 16 22 1013.8 1013.8 0.0
18/08:00pm 19.4 14.4 14.0 71 3.1 SE 33 41 18 22 1013.4 1013.4 0.0
18/07:30pm 20.4 15.4 14.1 67 3.6 SE 33 44 18 24 1013.6 1013.6 0.0
18/07:00pm 21.3 16.0 13.0 59 4.7 SE 33 43 18 23 1013.5 1013.5 0.0
18/06:30pm 20.7 15.5 12.7 60 4.5 SE 32 41 17 22 1013.6 1013.6 0.0
18/06:00pm 21.5 16.6 13.7 61 4.5 SE 32 39 17 21 1013.7 1013.7 0.0
18/05:30pm 21.6 16.6 13.5 60 4.7 SE 32 43 17 23 1013.9 1013.9 0.0
18/05:00pm 22.4 17.6 14.0 59 4.9 SE 32 43 17 23 1013.8 1013.8 0.0
18/04:30pm 21.5 15.8 12.9 58 4.9 SE 35 44 19 24 1014.0 1014.0 0.0
18/04:00pm 21.9 15.9 13.3 58 4.9 SE 37 48 20 26 1014.2 1014.2 0.0
18/03:30pm 23.2 17.6 13.4 54 5.7 SE 35 46 19 25 1014.4 1014.4 0.0
18/03:00pm 21.7 16.0 13.1 58 4.9 ESE 35 44 19 24 1014.4 1014.4 0.0
18/02:30pm 22.2 17.0 13.3 57 5.1 SE 33 48 18 26 1014.9 1014.9 0.0
18/02:00pm 22.1 17.0 13.7 59 4.9 SE 33 43 18 23 1015.5 1015.5 0.0
18/01:30pm 22.3 17.3 13.9 59 4.9 SE 33 44 18 24 1015.7 1015.7 0.0
18/01:00pm 21.1 16.0 13.0 60 4.6 SE 32 43 17 23 1015.9 1015.9 0.0
18/12:30pm 22.7 18.4 14.5 60 4.8 SE 30 41 16 22 1016.3 1016.3 0.0
18/12:00pm 21.8 17.2 13.4 59 4.8 SE 30 43 16 23 1016.3 1016.3 0.0
18/11:30am 21.2 16.0 12.9 59 4.7 SE 32 43 17 23 1016.7 1016.7 0.0
18/11:00am 21.1 16.0 13.0 60 4.6 ESE 32 43 17 23 1016.7 1016.7 0.0
18/10:30am 20.9 15.6 13.1 61 4.4 ESE 33 43 18 23 1016.9 1016.9 0.0
18/10:00am 20.5 14.9 13.2 63 4.2 ESE 35 43 19 23 1017.1 1017.1 0.0
18/09:30am 19.2 14.0 12.7 66 3.6 ESE 32 43 17 23 1017.1 1017.1 0.0
18/09:00am 18.6 13.2 12.8 69 3.2 ESE 33 43 18 23 1016.6 1016.6 0.0
18/08:30am 18.2 12.2 12.2 68 3.3 SE 35 44 19 24 1016.4 1016.4 0.0
18/08:00am 18.0 11.4 12.7 71 3.0 SE 39 52 21 28 1016.1 1016.1 0.0
18/07:30am 17.6 11.6 13.3 76 2.4 SE 37 48 20 26 1015.7 1015.7 0.0
18/07:00am 17.3 11.5 12.8 75 2.5 SE 35 43 19 23 1015.3 1015.3 0.0
18/06:30am 17.4 11.2 13.7 79 2.1 SSE 39 48 21 26 1014.8 1014.8 0.0
18/06:15am 17.3 11.7 13.4 78 2.2 SSE 35 46 19 25 1014.5 1014.5 0.0
18/06:00am 17.4 11.5 13.7 79 2.1 SSE 37 46 20 25 1014.3 1014.3 0.0
18/05:30am 17.5 11.8 14.2 81 1.9 SSE 37 46 20 25 1013.7 1013.7 0.0
18/05:00am 17.6 12.4 14.5 82 1.8 SSE 35 44 19 24 1013.2 1013.2 0.0
18/04:30am 18.0 13.4 15.1 83 1.7 SSE 33 43 18 23 1012.5 1012.5 0.0
18/04:00am 18.1 13.2 15.4 84 1.6 SSE 35 43 19 23 1011.9 1011.9 0.0
18/03:30am 18.2 13.8 15.6 85 1.5 SSE 33 43 18 23 1012.1 1012.1 0.0
18/03:00am 18.6 15.3 16.0 85 1.5 SSE 28 35 15 19 1012.1 1012.1 0.0
18/02:58am 18.6 15.7 16.0 85 1.5 SSE 26 32 14 17 1012.1 1012.1 0.0
18/02:30am 18.4 15.8 15.8 85 1.5 SSE 24 30 13 16 1012.0 1012.0 0.0
18/02:00am 18.2 15.9 15.6 85 1.5 SSE 22 26 12 14 1012.1 1012.1 0.0
18/01:30am 18.4 15.7 15.6 84 1.6 SSE 24 32 13 17 1012.6 1012.6 0.0
18/01:00am 18.6 16.2 15.5 82 1.8 SSE 22 30 12 16 1012.7 1012.7 0.0
18/12:30am 18.7 16.4 15.6 82 1.8 SSE 22 28 12 15 1012.7 1012.7 0.0
18/12:00am 18.8 16.1 15.7 82 1.8 SSE 24 32 13 17 1012.9 1012.9 0.0
 
Date/Time
CDT
Temp
°C
App
Temp
°C
Dew
Point
°C
Rel
Hum
%
Delta-T
°C
Wind Press
QNH
hPa
Press
MSL
hPa
Rain since
9am
mm
Dir  Spd
km/h
Gust
km/h
Spd
kts
Gust
kts
17/11:30pm 18.9 15.8 15.6 81 1.9 SSE 26 33 14 18 1012.9 1012.9 0.0
17/11:00pm 18.9 16.2 15.6 81 1.9 SSE 24 30 13 16 1012.9 1012.9 0.0
17/10:30pm 19.0 16.1 15.1 78 2.3 SSE 24 30 13 16 1012.9 1012.9 0.0
17/10:00pm 19.2 15.2 15.3 78 2.3 SSE 30 39 16 21 1012.7 1012.7 0.0
17/09:30pm 19.2 14.9 15.3 78 2.3 SSE 32 44 17 24 1012.5 1012.5 0.0
17/09:00pm 19.2 15.5 16.1 82 1.8 SSE 30 39 16 21 1012.0 1012.0 0.0
17/08:54pm 19.2 16.3 16.1 82 1.8 SSE 26 39 14 21 1012.2 1012.2 0.0
17/08:30pm 19.1 16.7 16.3 84 1.7 SE 24 32 13 17 1011.0 1011.0 0.0
17/08:20pm 19.4 16.2 16.4 83 1.8 SE 28 37 15 20 1010.9 1010.9 0.0
17/08:00pm 19.5 14.9 16.2 81 2.0 SE 35 46 19 25 1010.9 1010.9 0.0
17/07:30pm 20.9 16.1 16.5 76 2.7 S 37 52 20 28 1010.9 1010.9 0.0
17/07:14pm 20.9 14.6 16.1 74 2.9 S 44 57 24 31 1010.8 1010.8 0.0
17/07:00pm 21.3 14.0 16.5 74 2.9 S 50 61 27 33 1010.6 1010.6 0.0
17/06:40pm 21.5 14.7 16.9 75 2.8 S 48 67 26 36 1010.5 1010.5 0.0
17/06:30pm 21.7 14.0 17.3 76 2.7 S 54 67 29 36 1010.0 1010.0 0.0
17/06:06pm 22.3 15.2 17.0 72 3.2 S 50 63 27 34 1009.4 1009.4 0.0

Other Formats:

Comma delimited format used in spreadsheet applications
http://www.bom.gov.au/fwo/IDS60801/IDS60801.95661.axf

JavaScript Object Notation format (JSON) in row-major order
http://www.bom.gov.au/fwo/IDS60801/IDS60801.95661.json